Limavady, United Kingdom
Current Conditions -  °F | °C
As of 5:50 PM on Friday 19 Dec 2014 (Local Time) from EGAE Reporting Station
Scattered Clouds Scattered Clouds  
Wind Chill:   Ceiling: Unl
Heat Index:   Visibility: 6mi
Dew Point:   Wind: 23mph
Humidity: 87%   Direction: 260°W
Pressure: 29.91"   Gusts: NA
Location:  55.05°N, 6.95°W
Report Text: EGAE 191750Z 26020KT 9999 SCT024 06/04 Q1013
Loading
Personal Weather Stations






























Interactive Weather Map New forecast layout! Learn more

10-Day Weather Forecast

Advertisements
Track Severe Weather on mobile